Huvudsida
METAR-TAF:

METAR-TAF

Flygplatser :

Dubais internationella flygplats

Dubai, Förenade Arabemiraten

latitud: 25-15-10N, longitud: 055-21-52E, höjd: 8 m

Aktuellt väderrapport

Denna rapport gjordes för 55 minuter sedan, klockan 20:00 UTC
Vind 6 kt från ost, varierande mellan nord/nordost och sydost
Temperatur 24°C
Fuktighet 31%
Tryck 1014 hPa
Sikt 10 km eller mer
Inga moln under 1 500 m eller inga cumulonimbus

METAR: OMDB 112000Z 10006KT 030V140 CAVOK 24/06 Q1014 NOSIG

Tid: 00:55 (20:55 UTC)

Väderprognos

Denna rapport gjordes för 4 timmar och 1 minuter sedan, klockan 16:54 UTC
Prognos gäller från 11 kl. 18 UTC till 13 kl. 00 UTC
Vind 6 kt från ost
Sikt 10 km eller mer
Inga moln under 1 500 m eller inga cumulonimbus
Blir
från 12 kl. 09 UTC till 12 kl. 11 UTC
Vind 10 kt från nord
Blir
från 12 kl. 15 UTC till 12 kl. 17 UTC
Vind 5 kt från ost

TAF: OMDB 111654Z 1118/1300 10006KT CAVOK BECMG 1209/1211 36010KT BECMG 1215/1217 09005KT

Aktuella väderrapporter och prognoser från 4000 flygplatser (METAR- och TAF-rapporter).

De tillgängliga stationerna syns som gula och röda prickar på kartan.

För musen över prickarna för att se namnen på stationerna.

Klicka sedan för att få väderrapporter och prognoser.

För att ändra kartan: Klicka på de gröna knapparna med ett svart kors på för att zooma in; den gröna knappen med ett streck på för att zooma ut; eller på de gröna pilarna för angränsande kartor.


METAR-TAF: